Time,TemperatureF,DewpointF,PressureIn,WindDirection,WindDirectionDegrees,WindSpeedMPH,WindSpeedGustMPH,Humidity,HourlyPrecipIn,Conditions,Clouds,dailyrainin,SoftwareType,DateUTC
2013-06-11 00:02:00,64.7,62.9,29.92,SSW,211,0.0,0.0,94,0.00,,,0.00,WUHU216DAVISVP2,2013-06-11 05:02:00,
2013-06-11 00:07:00,64.5,62.7,29.91,SSW,211,0.0,0.0,94,0.00,,,0.00,WUHU216DAVISVP2,2013-06-11 05:07:00,
2013-06-11 00:12:00,64.6,62.8,29.91,SSW,211,0.0,0.0,94,0.00,,,0.00,WUHU216DAVISVP2,2013-06-11 05:12:00,
2013-06-11 00:17:00,64.6,62.8,29.92,SSW,211,0.0,0.0,94,0.00,,,0.00,WUHU216DAVISVP2,2013-06-11 05:17:00,
2013-06-11 00:22:00,64.5,62.7,29.92,SSW,211,0.0,0.0,94,0.00,,,0.00,WUHU216DAVISVP2,2013-06-11 05:22:00,
2013-06-11 00:27:00,64.3,62.5,29.92,SSW,211,0.0,0.0,94,0.00,,,0.00,WUHU216DAVISVP2,2013-06-11 05:27:00,
2013-06-11 00:32:00,64.4,62.9,29.92,SSW,211,0.0,0.0,95,0.00,,,0.00,WUHU216DAVISVP2,2013-06-11 05:32:00,
2013-06-11 00:37:00,64.3,62.5,29.92,SSW,211,0.0,0.0,94,0.00,,,0.00,WUHU216DAVISVP2,2013-06-11 05:37:00,
2013-06-11 00:42:00,64.1,62.3,29.92,SSW,211,0.0,0.0,94,0.00,,,0.00,WUHU216DAVISVP2,2013-06-11 05:42:00,
2013-06-11 00:47:00,64.1,62.6,29.92,SSW,211,0.0,0.0,95,0.00,,,0.00,WUHU216DAVISVP2,2013-06-11 05:47:00,
2013-06-11 00:52:00,63.9,62.4,29.92,SSW,211,0.0,0.0,95,0.00,,,0.00,WUHU216DAVISVP2,2013-06-11 05:52:00,
2013-06-11 00:57:00,63.7,62.2,29.92,SSW,211,0.0,0.0,95,0.00,,,0.00,WUHU216DAVISVP2,2013-06-11 05:57:00,
2013-06-11 01:02:00,63.6,62.1,29.92,SSW,211,0.0,0.0,95,0.00,,,0.00,WUHU216DAVISVP2,2013-06-11 06:02:00,
2013-06-11 01:07:00,63.6,62.1,29.92,SSW,211,0.0,0.0,95,0.00,,,0.00,WUHU216DAVISVP2,2013-06-11 06:07:00,
2013-06-11 01:12:00,63.6,62.1,29.92,SSW,211,0.0,0.0,95,0.00,,,0.00,WUHU216DAVISVP2,2013-06-11 06:12:00,
2013-06-11 01:17:00,63.5,62.0,29.92,SSW,211,0.0,0.0,95,0.00,,,0.00,WUHU216DAVISVP2,2013-06-11 06:17:00,
2013-06-11 01:22:00,63.3,61.8,29.92,SSW,211,0.0,0.0,95,0.00,,,0.00,WUHU216DAVISVP2,2013-06-11 06:22:00,
2013-06-11 01:27:00,63.1,61.6,29.92,SSW,211,0.0,0.0,95,0.00,,,0.00,WUHU216DAVISVP2,2013-06-11 06:27:00,
2013-06-11 01:32:00,63.2,62.0,29.92,SSW,211,0.0,0.0,96,0.00,,,0.00,WUHU216DAVISVP2,2013-06-11 06:32:00,
2013-06-11 01:37:00,63.2,62.0,29.92,SSW,211,0.0,0.0,96,0.00,,,0.00,WUHU216DAVISVP2,2013-06-11 06:37:00,
2013-06-11 01:42:00,63.1,61.9,29.92,SSW,211,0.0,0.0,96,0.00,,,0.00,WUHU216DAVISVP2,2013-06-11 06:42:00,
2013-06-11 01:47:00,63.2,62.0,29.92,SSW,211,0.0,0.0,96,0.00,,,0.00,WUHU216DAVISVP2,2013-06-11 06:47:00,
2013-06-11 01:52:00,63.2,62.0,29.92,SSW,211,0.0,0.0,96,0.00,,,0.00,WUHU216DAVISVP2,2013-06-11 06:52:00,
2013-06-11 01:57:00,63.3,62.1,29.92,SSW,211,0.0,0.0,96,0.00,,,0.00,WUHU216DAVISVP2,2013-06-11 06:57:00,
2013-06-11 02:02:00,63.4,62.2,29.92,SSW,211,0.0,0.0,96,0.00,,,0.00,WUHU216DAVISVP2,2013-06-11 07:02:00,
2013-06-11 02:07:00,63.5,62.3,29.92,SSW,211,0.0,0.0,96,0.00,,,0.00,WUHU216DAVISVP2,2013-06-11 07:07:00,
2013-06-11 02:12:00,63.3,62.1,29.92,SSW,211,0.0,0.0,96,0.00,,,0.00,WUHU216DAVISVP2,2013-06-11 07:12:00,
2013-06-11 02:17:00,63.1,61.9,29.92,SSW,211,0.0,0.0,96,0.00,,,0.00,WUHU216DAVISVP2,2013-06-11 07:17:00,
2013-06-11 02:22:00,63.0,61.8,29.92,SSW,211,0.0,0.0,96,0.00,,,0.00,WUHU216DAVISVP2,2013-06-11 07:22:00,
2013-06-11 02:27:00,62.8,61.6,29.92,SSW,211,0.0,0.0,96,0.00,,,0.00,WUHU216DAVISVP2,2013-06-11 07:27:00,
2013-06-11 02:32:00,62.9,61.7,29.92,SSW,211,0.0,0.0,96,0.00,,,0.00,WUHU216DAVISVP2,2013-06-11 07:32:00,
2013-06-11 02:37:00,62.8,61.6,29.92,SSW,211,0.0,0.0,96,0.00,,,0.00,WUHU216DAVISVP2,2013-06-11 07:37:00,
2013-06-11 02:42:00,62.8,61.6,29.92,SSW,211,0.0,0.0,96,0.00,,,0.00,WUHU216DAVISVP2,2013-06-11 07:42:00,
2013-06-11 02:47:00,62.7,61.5,29.92,SSW,211,0.0,0.0,96,0.00,,,0.00,WUHU216DAVISVP2,2013-06-11 07:47:00,
2013-06-11 02:52:00,62.6,61.4,29.92,SSW,211,0.0,0.0,96,0.00,,,0.00,WUHU216DAVISVP2,2013-06-11 07:52:00,
2013-06-11 02:57:00,62.5,61.3,29.92,SSW,211,0.0,0.0,96,0.00,,,0.00,WUHU216DAVISVP2,2013-06-11 07:57:00,
2013-06-11 03:02:00,62.5,61.3,29.92,SSW,211,0.0,0.0,96,0.00,,,0.00,WUHU216DAVISVP2,2013-06-11 08:02:00,
2013-06-11 03:07:00,62.4,61.2,29.92,SSW,211,0.0,0.0,96,0.00,,,0.00,WUHU216DAVISVP2,2013-06-11 08:07:00,
2013-06-11 03:12:00,62.3,61.1,29.92,SSW,211,0.0,0.0,96,0.00,,,0.00,WUHU216DAVISVP2,2013-06-11 08:12:00,
2013-06-11 03:17:00,62.3,61.4,29.92,SSW,211,0.0,0.0,97,0.00,,,0.00,WUHU216DAVISVP2,2013-06-11 08:17:00,
2013-06-11 03:22:00,62.4,61.5,29.92,SSW,211,0.0,0.0,97,0.00,,,0.00,WUHU216DAVISVP2,2013-06-11 08:22:00,
2013-06-11 03:27:00,62.3,61.1,29.93,SSW,211,0.0,0.0,96,0.00,,,0.00,WUHU216DAVISVP2,2013-06-11 08:27:00,
2013-06-11 03:32:00,62.2,61.3,29.93,SSW,211,0.0,0.0,97,0.00,,,0.00,WUHU216DAVISVP2,2013-06-11 08:32:00,
2013-06-11 03:37:00,62.1,60.9,29.93,SSW,211,0.0,0.0,96,0.00,,,0.00,WUHU216DAVISVP2,2013-06-11 08:37:00,
2013-06-11 03:42:00,62.0,61.1,29.93,SSW,211,0.0,0.0,97,0.00,,,0.00,WUHU216DAVISVP2,2013-06-11 08:42:00,
2013-06-11 03:47:00,62.0,60.8,29.92,SE,135,0.0,0.0,96,0.00,,,0.00,WUHU216DAVISVP2,2013-06-11 08:47:00,
2013-06-11 03:52:00,61.8,60.6,29.93,SE,135,0.0,0.0,96,0.00,,,0.00,WUHU216DAVISVP2,2013-06-11 08:52:00,
2013-06-11 03:57:00,61.8,60.6,29.92,SE,135,0.0,0.0,96,0.00,,,0.00,WUHU216DAVISVP2,2013-06-11 08:57:00,
2013-06-11 04:02:00,61.7,60.5,29.92,SE,135,0.0,0.0,96,0.00,,,0.00,WUHU216DAVISVP2,2013-06-11 09:02:00,
2013-06-11 04:07:00,61.7,60.5,29.92,SE,135,0.0,0.0,96,0.00,,,0.00,WUHU216DAVISVP2,2013-06-11 09:07:00,
2013-06-11 04:12:00,61.6,60.4,29.92,SE,135,0.0,0.0,96,0.00,,,0.00,WUHU216DAVISVP2,2013-06-11 09:12:00,
2013-06-11 04:17:00,61.5,60.3,29.92,SE,135,0.0,0.0,96,0.00,,,0.00,WUHU216DAVISVP2,2013-06-11 09:17:00,
2013-06-11 04:22:00,61.4,60.2,29.92,SE,136,0.0,0.0,96,0.00,,,0.00,WUHU216DAVISVP2,2013-06-11 09:22:00,
2013-06-11 04:27:00,61.3,60.4,29.93,SE,136,0.0,0.0,97,0.00,,,0.00,WUHU216DAVISVP2,2013-06-11 09:27:00,
2013-06-11 04:32:00,61.2,60.0,29.93,SE,136,0.0,0.0,96,0.00,,,0.00,WUHU216DAVISVP2,2013-06-11 09:32:00,
2013-06-11 04:37:00,61.0,59.8,29.93,SW,226,0.0,0.0,96,0.00,,,0.00,WUHU216DAVISVP2,2013-06-11 09:37:00,
2013-06-11 04:42:00,61.0,60.1,29.94,SW,226,0.0,0.0,97,0.00,,,0.00,WUHU216DAVISVP2,2013-06-11 09:42:00,
2013-06-11 04:47:00,60.9,60.0,29.94,SW,226,0.0,0.0,97,0.00,,,0.00,WUHU216DAVISVP2,2013-06-11 09:47:00,
2013-06-11 04:52:00,60.9,60.0,29.94,SW,226,0.0,0.0,97,0.00,,,0.00,WUHU216DAVISVP2,2013-06-11 09:52:00,
2013-06-11 04:57:00,60.9,60.0,29.94,SW,226,0.0,0.0,97,0.00,,,0.00,WUHU216DAVISVP2,2013-06-11 09:57:00,
2013-06-11 05:02:00,60.8,59.9,29.94,SW,226,0.0,0.0,97,0.00,,,0.00,WUHU216DAVISVP2,2013-06-11 10:02:00,
2013-06-11 05:07:00,60.9,60.0,29.95,SW,226,0.0,0.0,97,0.00,,,0.00,WUHU216DAVISVP2,2013-06-11 10:07:00,
2013-06-11 05:12:00,60.7,59.8,29.95,SW,226,0.0,0.0,97,0.00,,,0.00,WUHU216DAVISVP2,2013-06-11 10:12:00,
2013-06-11 05:17:00,60.8,59.9,29.95,SW,226,0.0,0.0,97,0.00,,,0.00,WUHU216DAVISVP2,2013-06-11 10:17:00,
2013-06-11 05:22:00,60.8,59.9,29.95,SW,226,0.0,0.0,97,0.00,,,0.00,WUHU216DAVISVP2,2013-06-11 10:22:00,
2013-06-11 05:27:00,60.9,60.0,29.96,SW,226,0.0,0.0,97,0.00,,,0.00,WUHU216DAVISVP2,2013-06-11 10:27:00,
2013-06-11 05:32:00,61.1,60.2,29.96,SW,226,0.0,0.0,97,0.00,,,0.00,WUHU216DAVISVP2,2013-06-11 10:32:00,
2013-06-11 05:37:00,61.0,60.1,29.96,SW,226,0.0,0.0,97,0.00,,,0.00,WUHU216DAVISVP2,2013-06-11 10:37:00,
2013-06-11 05:42:00,61.0,60.1,29.96,SW,226,0.0,0.0,97,0.00,,,0.00,WUHU216DAVISVP2,2013-06-11 10:42:00,
2013-06-11 05:47:00,60.9,60.0,29.96,SSE,160,0.0,0.0,97,0.00,,,0.00,WUHU216DAVISVP2,2013-06-11 10:47:00,
2013-06-11 05:52:00,60.8,59.9,29.96,SE,144,0.0,0.0,97,0.00,,,0.00,WUHU216DAVISVP2,2013-06-11 10:52:00,
2013-06-11 05:57:00,61.5,60.6,29.96,SE,144,0.0,0.0,97,0.00,,,0.00,WUHU216DAVISVP2,2013-06-11 10:57:00,
2013-06-11 06:02:00,62.0,61.1,29.97,SE,144,0.0,0.0,97,0.00,,,0.00,WUHU216DAVISVP2,2013-06-11 11:02:00,
2013-06-11 06:07:00,62.5,61.3,29.97,SE,144,0.0,0.0,96,0.00,,,0.00,WUHU216DAVISVP2,2013-06-11 11:07:00,
2013-06-11 06:12:00,62.9,62.0,29.97,SE,144,0.0,0.0,97,0.00,,,0.00,WUHU216DAVISVP2,2013-06-11 11:12:00,
2013-06-11 06:17:00,63.2,62.0,29.98,SE,144,0.0,0.0,96,0.00,,,0.00,WUHU216DAVISVP2,2013-06-11 11:17:00,
2013-06-11 06:22:00,63.9,62.7,29.98,SE,144,0.0,0.0,96,0.00,,,0.00,WUHU216DAVISVP2,2013-06-11 11:22:00,
2013-06-11 06:27:00,65.2,64.0,29.98,SE,144,0.0,0.0,96,0.00,,,0.00,WUHU216DAVISVP2,2013-06-11 11:27:00,
2013-06-11 06:32:00,66.7,64.6,29.98,SE,144,0.0,0.0,93,0.00,,,0.00,WUHU216DAVISVP2,2013-06-11 11:32:00,
2013-06-11 06:37:00,67.7,65.0,29.98,SE,144,0.0,0.0,91,0.00,,,0.00,WUHU216DAVISVP2,2013-06-11 11:37:00,
2013-06-11 06:42:00,68.2,64.2,29.98,SE,135,0.0,0.0,87,0.00,,,0.00,WUHU216DAVISVP2,2013-06-11 11:42:00,
2013-06-11 06:47:00,67.5,64.1,29.98,SE,135,0.0,0.0,89,0.00,,,0.00,WUHU216DAVISVP2,2013-06-11 11:47:00,
2013-06-11 06:52:00,68.4,65.3,29.98,SE,136,0.0,0.0,90,0.00,,,0.00,WUHU216DAVISVP2,2013-06-11 11:52:00,
2013-06-11 06:57:00,69.6,65.6,29.97,SE,136,0.0,0.0,87,0.00,,,0.00,WUHU216DAVISVP2,2013-06-11 11:57:00,
2013-06-11 07:02:00,69.8,65.1,29.98,SE,136,0.0,0.0,85,0.00,,,0.00,WUHU216DAVISVP2,2013-06-11 12:02:00,
2013-06-11 07:07:00,70.3,65.6,29.97,SE,136,0.0,0.0,85,0.00,,,0.00,WUHU216DAVISVP2,2013-06-11 12:07:00,
2013-06-11 07:12:00,70.2,65.5,29.97,SE,136,0.0,0.0,85,0.00,,,0.00,WUHU216DAVISVP2,2013-06-11 12:12:00,
2013-06-11 07:17:00,70.1,65.4,29.97,SSW,212,0.0,1.0,85,0.00,,,0.00,WUHU216DAVISVP2,2013-06-11 12:17:00,
2013-06-11 07:22:00,69.9,65.2,29.98,SW,220,1.0,3.0,85,0.00,,,0.00,WUHU216DAVISVP2,2013-06-11 12:22:00,
2013-06-11 07:27:00,70.1,65.7,29.98,SW,217,0.0,3.0,86,0.00,,,0.00,WUHU216DAVISVP2,2013-06-11 12:27:00,
2013-06-11 07:32:00,71.1,66.4,29.98,SSW,208,0.0,2.0,85,0.00,,,0.00,WUHU216DAVISVP2,2013-06-11 12:32:00,
2013-06-11 07:37:00,71.5,66.1,29.98,SSW,209,0.0,2.0,83,0.00,,,0.00,WUHU216DAVISVP2,2013-06-11 12:37:00,
2013-06-11 07:42:00,72.2,67.1,29.98,SSE,162,0.0,2.0,84,0.00,,,0.00,WUHU216DAVISVP2,2013-06-11 12:42:00,
2013-06-11 07:47:00,72.6,67.2,29.98,South,170,0.0,1.0,83,0.00,,,0.00,WUHU216DAVISVP2,2013-06-11 12:47:00,
2013-06-11 07:52:00,72.7,66.6,29.98,SSW,195,1.0,3.0,81,0.00,,,0.00,WUHU216DAVISVP2,2013-06-11 12:52:00,
2013-06-11 07:57:00,73.0,67.2,29.98,SW,222,0.0,3.0,82,0.00,,,0.00,WUHU216DAVISVP2,2013-06-11 12:57:00,
2013-06-11 08:02:00,73.5,67.0,29.99,SSW,195,2.0,3.0,80,0.00,,,0.00,WUHU216DAVISVP2,2013-06-11 13:02:00,
2013-06-11 08:07:00,73.7,66.9,29.98,SSW,205,1.0,3.0,79,0.00,,,0.00,WUHU216DAVISVP2,2013-06-11 13:07:00,
2013-06-11 08:12:00,74.3,67.8,29.98,South,181,0.0,3.0,80,0.00,,,0.00,WUHU216DAVISVP2,2013-06-11 13:12:00,
2013-06-11 08:17:00,75.5,67.6,29.98,SE,126,2.0,2.0,76,0.00,,,0.00,WUHU216DAVISVP2,2013-06-11 13:17:00,
2013-06-11 08:22:00,75.9,67.2,29.98,ESE,103,1.0,3.0,74,0.00,,,0.00,WUHU216DAVISVP2,2013-06-11 13:22:00,
2013-06-11 08:27:00,76.0,66.7,29.98,South,182,2.0,5.0,73,0.00,,,0.00,WUHU216DAVISVP2,2013-06-11 13:27:00,
2013-06-11 08:32:00,76.1,68.0,29.98,ENE,67,1.0,5.0,76,0.00,,,0.00,WUHU216DAVISVP2,2013-06-11 13:32:00,
2013-06-11 08:37:00,76.6,67.9,29.98,ESE,114,1.0,3.0,74,0.00,,,0.00,WUHU216DAVISVP2,2013-06-11 13:37:00,
2013-06-11 08:42:00,77.0,68.1,29.98,ESE,117,1.0,3.0,74,0.00,,,0.00,WUHU216DAVISVP2,2013-06-11 13:42:00,
2013-06-11 08:47:00,77.4,67.7,29.97,East,87,2.0,3.0,72,0.00,,,0.00,WUHU216DAVISVP2,2013-06-11 13:47:00,
2013-06-11 08:52:00,77.9,68.5,29.98,WSW,245,1.0,3.0,73,0.00,,,0.00,WUHU216DAVISVP2,2013-06-11 13:52:00,
2013-06-11 08:57:00,77.9,68.3,29.98,SW,215,1.0,4.0,72,0.00,,,0.00,WUHU216DAVISVP2,2013-06-11 13:57:00,
2013-06-11 09:02:00,78.1,67.3,29.98,SSE,148,1.0,5.0,69,0.00,,,0.00,WUHU216DAVISVP2,2013-06-11 14:02:00,
2013-06-11 09:07:00,78.6,67.8,29.97,West,264,1.0,5.0,69,0.00,,,0.00,WUHU216DAVISVP2,2013-06-11 14:07:00,
2013-06-11 09:12:00,78.4,67.6,29.97,SSW,195,5.0,5.0,69,0.00,,,0.00,WUHU216DAVISVP2,2013-06-11 14:12:00,
2013-06-11 09:17:00,78.4,67.2,29.97,South,190,3.0,6.0,68,0.00,,,0.00,WUHU216DAVISVP2,2013-06-11 14:17:00,
2013-06-11 09:22:00,78.3,67.5,29.97,SW,234,2.0,8.0,69,0.00,,,0.00,WUHU216DAVISVP2,2013-06-11 14:22:00,
2013-06-11 09:27:00,77.9,67.9,29.97,SSE,161,2.0,8.0,71,0.00,,,0.00,WUHU216DAVISVP2,2013-06-11 14:27:00,
2013-06-11 09:32:00,78.7,68.3,29.97,SW,233,0.0,3.0,70,0.00,,,0.00,WUHU216DAVISVP2,2013-06-11 14:32:00,
2013-06-11 09:37:00,79.0,67.8,29.97,SSE,167,3.0,6.0,68,0.00,,,0.00,WUHU216DAVISVP2,2013-06-11 14:37:00,
2013-06-11 09:42:00,79.4,68.6,29.96,SSE,158,2.0,6.0,69,0.00,,,0.00,WUHU216DAVISVP2,2013-06-11 14:42:00,
2013-06-11 09:47:00,80.0,67.9,29.97,NE,54,0.0,5.0,66,0.00,,,0.00,WUHU216DAVISVP2,2013-06-11 14:47:00,
2013-06-11 09:52:00,80.4,68.7,29.97,SSW,211,5.0,6.0,67,0.00,,,0.00,WUHU216DAVISVP2,2013-06-11 14:52:00,
2013-06-11 09:57:00,80.1,68.0,29.97,SSW,205,2.0,6.0,66,0.00,,,0.00,WUHU216DAVISVP2,2013-06-11 14:57:00,
2013-06-11 10:02:00,80.1,67.5,29.97,SW,219,4.0,6.0,65,0.00,,,0.00,WUHU216DAVISVP2,2013-06-11 15:02:00,
2013-06-11 10:07:00,80.3,67.9,29.97,South,185,2.0,7.0,66,0.00,,,0.00,WUHU216DAVISVP2,2013-06-11 15:07:00,
2013-06-11 10:12:00,80.5,68.1,29.97,SW,217,4.0,7.0,66,0.00,,,0.00,WUHU216DAVISVP2,2013-06-11 15:12:00,
2013-06-11 10:17:00,80.5,68.3,29.98,SW,226,4.0,9.0,66,0.00,,,0.00,WUHU216DAVISVP2,2013-06-11 15:17:00,
2013-06-11 10:22:00,80.6,68.0,29.98,SSW,209,6.0,9.0,65,0.00,,,0.00,WUHU216DAVISVP2,2013-06-11 15:22:00,
2013-06-11 10:27:00,80.8,68.2,29.97,South,186,6.0,9.0,65,0.00,,,0.00,WUHU216DAVISVP2,2013-06-11 15:27:00,
2013-06-11 10:32:00,80.9,67.8,29.97,South,174,2.0,9.0,64,0.00,,,0.00,WUHU216DAVISVP2,2013-06-11 15:32:00,
2013-06-11 10:37:00,81.0,67.5,29.97,SSE,153,8.0,10.0,63,0.00,,,0.00,WUHU216DAVISVP2,2013-06-11 15:37:00,
2013-06-11 10:42:00,81.1,68.0,29.96,SSW,210,6.0,10.0,64,0.00,,,0.00,WUHU216DAVISVP2,2013-06-11 15:42:00,
2013-06-11 10:47:00,81.4,68.3,29.96,SE,136,2.0,8.0,64,0.00,,,0.00,WUHU216DAVISVP2,2013-06-11 15:47:00,
2013-06-11 10:52:00,81.8,68.2,29.96,SSW,195,4.0,8.0,63,0.00,,,0.00,WUHU216DAVISVP2,2013-06-11 15:52:00,
2013-06-11 10:57:00,82.1,68.5,29.95,SSE,162,2.0,6.0,63,0.00,,,0.00,WUHU216DAVISVP2,2013-06-11 15:57:00,
2013-06-11 11:02:00,82.4,68.3,29.95,South,183,6.0,8.0,62,0.00,,,0.00,WUHU216DAVISVP2,2013-06-11 16:02:00,
2013-06-11 11:07:00,82.7,69.1,29.95,SSW,207,5.0,8.0,63,0.00,,,0.00,WUHU216DAVISVP2,2013-06-11 16:07:00,
2013-06-11 11:12:00,82.8,68.7,29.95,South,188,3.0,10.0,62,0.00,,,0.00,WUHU216DAVISVP2,2013-06-11 16:12:00,
2013-06-11 11:17:00,83.1,68.0,29.94,South,175,6.0,10.0,60,0.00,,,0.00,WUHU216DAVISVP2,2013-06-11 16:17:00,
2013-06-11 11:22:00,83.5,69.4,29.95,South,176,8.0,8.0,62,0.00,,,0.00,WUHU216DAVISVP2,2013-06-11 16:22:00,
2013-06-11 11:27:00,83.7,68.8,29.95,SW,224,8.0,12.0,61,0.00,,,0.00,WUHU216DAVISVP2,2013-06-11 16:27:00,
2013-06-11 11:32:00,83.7,68.8,29.95,SW,220,4.0,12.0,61,0.00,,,0.00,WUHU216DAVISVP2,2013-06-11 16:32:00,
2013-06-11 11:37:00,83.8,68.9,29.94,SSW,192,6.0,12.0,61,0.00,,,0.00,WUHU216DAVISVP2,2013-06-11 16:37:00,
2013-06-11 11:42:00,84.2,68.8,29.94,SSW,197,3.0,10.0,60,0.00,,,0.00,WUHU216DAVISVP2,2013-06-11 16:42:00,
2013-06-11 11:47:00,84.5,69.8,29.94,SE,141,0.0,8.0,61,0.00,,,0.00,WUHU216DAVISVP2,2013-06-11 16:47:00,
2013-06-11 11:52:00,84.9,69.7,29.93,South,175,3.0,11.0,60,0.00,,,0.00,WUHU216DAVISVP2,2013-06-11 16:52:00,
2013-06-11 11:57:00,85.1,69.9,29.93,SSW,211,7.0,11.0,60,0.00,,,0.00,WUHU216DAVISVP2,2013-06-11 16:57:00,
2013-06-11 12:02:00,85.3,70.1,29.93,SSW,210,3.0,11.0,60,0.00,,,0.00,WUHU216DAVISVP2,2013-06-11 17:02:00,
2013-06-11 12:07:00,85.4,70.7,29.92,South,191,7.0,11.0,61,0.00,,,0.00,WUHU216DAVISVP2,2013-06-11 17:07:00,
2013-06-11 12:12:00,85.4,70.7,29.92,SW,218,12.0,14.0,61,0.00,,,0.00,WUHU216DAVISVP2,2013-06-11 17:12:00,
2013-06-11 12:17:00,85.5,70.8,29.92,South,184,4.0,14.0,61,0.00,,,0.00,WUHU216DAVISVP2,2013-06-11 17:17:00,
2013-06-11 12:22:00,85.5,71.3,29.92,South,188,5.0,9.0,62,0.00,,,0.00,WUHU216DAVISVP2,2013-06-11 17:22:00,
2013-06-11 12:27:00,85.7,71.0,29.91,SSW,212,5.0,11.0,61,0.00,,,0.00,WUHU216DAVISVP2,2013-06-11 17:27:00,
2013-06-11 12:32:00,85.7,71.5,29.91,South,177,8.0,13.0,62,0.00,,,0.00,WUHU216DAVISVP2,2013-06-11 17:32:00,
2013-06-11 12:37:00,86.0,71.3,29.91,SSW,200,9.0,13.0,61,0.00,,,0.00,WUHU216DAVISVP2,2013-06-11 17:37:00,
2013-06-11 12:42:00,86.4,72.1,29.91,SSW,202,14.0,14.0,62,0.00,,,0.00,WUHU216DAVISVP2,2013-06-11 17:42:00,
2013-06-11 12:47:00,86.3,71.3,29.91,SW,219,11.0,15.0,61,0.00,,,0.00,WUHU216DAVISVP2,2013-06-11 17:47:00,
2013-06-11 12:52:00,86.4,70.9,29.92,SSW,207,8.0,15.0,60,0.00,,,0.00,WUHU216DAVISVP2,2013-06-11 17:52:00,
2013-06-11 12:57:00,86.8,72.2,29.92,SSW,206,13.0,13.0,62,0.00,,,0.00,WUHU216DAVISVP2,2013-06-11 17:57:00,
2013-06-11 13:02:00,87.0,73.3,29.92,SSE,168,4.0,13.0,64,0.00,,,0.00,WUHU216DAVISVP2,2013-06-11 18:02:00,
2013-06-11 13:07:00,87.7,73.1,29.92,SW,219,6.0,10.0,62,0.00,,,0.00,WUHU216DAVISVP2,2013-06-11 18:07:00,
2013-06-11 13:12:00,88.0,71.9,29.92,South,169,6.0,16.0,59,0.00,,,0.00,WUHU216DAVISVP2,2013-06-11 18:12:00,
2013-06-11 13:17:00,88.4,72.5,29.92,SW,214,7.0,16.0,59,0.00,,,0.00,WUHU216DAVISVP2,2013-06-11 18:17:00,
2013-06-11 13:22:00,88.6,72.2,29.92,South,179,10.0,12.0,58,0.00,,,0.00,WUHU216DAVISVP2,2013-06-11 18:22:00,
2013-06-11 13:27:00,88.5,71.6,29.91,WSW,241,10.0,13.0,57,0.00,,,0.00,WUHU216DAVISVP2,2013-06-11 18:27:00,
2013-06-11 13:32:00,87.7,71.9,29.91,SSE,164,7.0,13.0,59,0.00,,,0.00,WUHU216DAVISVP2,2013-06-11 18:32:00,
2013-06-11 13:37:00,87.3,72.0,29.91,SW,217,9.0,12.0,60,0.00,,,0.00,WUHU216DAVISVP2,2013-06-11 18:37:00,
2013-06-11 13:42:00,87.5,73.2,29.91,SW,224,8.0,12.0,62,0.00,,,0.00,WUHU216DAVISVP2,2013-06-11 18:42:00,
2013-06-11 13:47:00,87.9,72.1,29.91,SW,227,7.0,13.0,59,0.00,,,0.00,WUHU216DAVISVP2,2013-06-11 18:47:00,
2013-06-11 13:52:00,88.2,73.8,29.91,SSW,209,6.0,13.0,62,0.00,,,0.00,WUHU216DAVISVP2,2013-06-11 18:52:00,
2013-06-11 13:57:00,88.5,72.6,29.91,SSW,212,8.0,12.0,59,0.00,,,0.00,WUHU216DAVISVP2,2013-06-11 18:57:00,
2013-06-11 14:02:00,89.2,74.3,29.91,SSW,202,9.0,11.0,61,0.00,,,0.00,WUHU216DAVISVP2,2013-06-11 19:02:00,
2013-06-11 14:07:00,89.3,73.4,29.91,SSW,211,5.0,12.0,59,0.00,,,0.00,WUHU216DAVISVP2,2013-06-11 19:07:00,
2013-06-11 14:12:00,89.3,73.1,29.91,SSW,211,6.0,12.0,59,0.00,,,0.00,WUHU216DAVISVP2,2013-06-11 19:12:00,
2013-06-11 14:17:00,89.5,73.8,29.91,South,189,5.0,11.0,60,0.00,,,0.00,WUHU216DAVISVP2,2013-06-11 19:17:00,
2013-06-11 14:22:00,89.8,73.0,29.91,SSW,212,6.0,11.0,58,0.00,,,0.00,WUHU216DAVISVP2,2013-06-11 19:22:00,
2013-06-11 14:27:00,89.5,73.1,29.91,SW,221,10.0,13.0,58,0.00,,,0.00,WUHU216DAVISVP2,2013-06-11 19:27:00,
2013-06-11 14:32:00,89.7,73.8,29.91,SW,231,9.0,13.0,59,0.00,,,0.00,WUHU216DAVISVP2,2013-06-11 19:32:00,
2013-06-11 14:37:00,89.9,73.9,29.91,SW,216,7.0,13.0,59,0.00,,,0.00,WUHU216DAVISVP2,2013-06-11 19:37:00,
2013-06-11 14:42:00,90.2,73.2,29.92,WSW,241,6.0,13.0,57,0.00,,,0.00,WUHU216DAVISVP2,2013-06-11 19:42:00,
2013-06-11 14:47:00,90.4,73.4,29.91,SW,214,6.0,13.0,57,0.00,,,0.00,WUHU216DAVISVP2,2013-06-11 19:47:00,
2013-06-11 14:52:00,90.5,74.0,29.91,SSW,210,7.0,13.0,58,0.00,,,0.00,WUHU216DAVISVP2,2013-06-11 19:52:00,
2013-06-11 14:57:00,91.0,74.5,29.91,South,172,5.0,15.0,58,0.00,,,0.00,WUHU216DAVISVP2,2013-06-11 19:57:00,
2013-06-11 15:02:00,91.0,73.9,29.90,SSW,203,5.0,15.0,57,0.00,,,0.00,WUHU216DAVISVP2,2013-06-11 20:02:00,
2013-06-11 15:07:00,91.1,74.0,29.90,SSW,199,4.0,11.0,57,0.00,,,0.00,WUHU216DAVISVP2,2013-06-11 20:07:00,
2013-06-11 15:12:00,91.2,73.0,29.90,SW,215,7.0,12.0,55,0.00,,,0.00,WUHU216DAVISVP2,2013-06-11 20:12:00,
2013-06-11 15:17:00,91.4,73.5,29.90,SW,214,8.0,12.0,56,0.00,,,0.00,WUHU216DAVISVP2,2013-06-11 20:17:00,
2013-06-11 15:22:00,91.6,73.7,29.90,SSW,200,7.0,11.0,56,0.00,,,0.00,WUHU216DAVISVP2,2013-06-11 20:22:00,
2013-06-11 15:27:00,91.8,74.7,29.90,SSW,204,4.0,10.0,57,0.00,,,0.00,WUHU216DAVISVP2,2013-06-11 20:27:00,
2013-06-11 15:32:00,92.2,74.0,29.90,SW,217,7.0,11.0,55,0.00,,,0.00,WUHU216DAVISVP2,2013-06-11 20:32:00,
2013-06-11 15:37:00,91.9,73.7,29.90,SW,226,11.0,14.0,55,0.00,,,0.00,WUHU216DAVISVP2,2013-06-11 20:37:00,
2013-06-11 15:42:00,91.1,73.5,29.90,SSW,211,7.0,14.0,56,0.00,,,0.00,WUHU216DAVISVP2,2013-06-11 20:42:00,
2013-06-11 15:47:00,91.8,73.0,29.90,SSW,200,7.0,12.0,54,0.00,,,0.00,WUHU216DAVISVP2,2013-06-11 20:47:00,
2013-06-11 15:52:00,92.2,74.0,29.90,SW,233,7.0,12.0,55,0.00,,,0.00,WUHU216DAVISVP2,2013-06-11 20:52:00,
2013-06-11 15:57:00,92.3,74.6,29.89,SSW,212,8.0,10.0,56,0.00,,,0.00,WUHU216DAVISVP2,2013-06-11 20:57:00,
2013-06-11 16:02:00,92.0,73.2,29.89,SSW,198,4.0,11.0,54,0.00,,,0.00,WUHU216DAVISVP2,2013-06-11 21:02:00,
2013-06-11 16:07:00,92.3,75.2,29.89,SSE,150,6.0,11.0,57,0.00,,,0.00,WUHU216DAVISVP2,2013-06-11 21:07:00,
2013-06-11 16:12:00,92.4,73.3,29.89,South,179,9.0,11.0,54,0.00,,,0.00,WUHU216DAVISVP2,2013-06-11 21:12:00,
2013-06-11 16:17:00,92.4,75.0,29.89,SSW,210,6.0,9.0,57,0.00,,,0.00,WUHU216DAVISVP2,2013-06-11 21:17:00,
2013-06-11 16:22:00,92.4,75.2,29.89,SSW,207,7.0,9.0,57,0.00,,,0.00,WUHU216DAVISVP2,2013-06-11 21:22:00,
2013-06-11 16:27:00,92.2,73.4,29.90,South,181,7.0,11.0,54,0.00,,,0.00,WUHU216DAVISVP2,2013-06-11 21:27:00,
2013-06-11 16:32:00,92.0,74.3,29.90,SSW,207,3.0,11.0,56,0.00,,,0.00,WUHU216DAVISVP2,2013-06-11 21:32:00,
2013-06-11 16:37:00,92.0,74.3,29.89,SW,231,7.0,9.0,56,0.00,,,0.00,WUHU216DAVISVP2,2013-06-11 21:37:00,
2013-06-11 16:42:00,91.8,73.6,29.89,South,186,4.0,10.0,55,0.00,,,0.00,WUHU216DAVISVP2,2013-06-11 21:42:00,
2013-06-11 16:48:00,91.5,74.9,29.89,SSE,162,2.0,10.0,58,0.00,,,0.00,WUHU216DAVISVP2,2013-06-11 21:48:00,
2013-06-11 16:53:00,91.7,75.6,29.88,SSW,207,6.0,8.0,59,0.00,,,0.00,WUHU216DAVISVP2,2013-06-11 21:53:00,
2013-06-11 16:58:00,91.7,74.1,29.88,South,174,4.0,9.0,56,0.00,,,0.00,WUHU216DAVISVP2,2013-06-11 21:58:00,
2013-06-11 17:03:00,91.3,74.4,29.88,SSW,197,2.0,9.0,58,0.00,,,0.00,WUHU216DAVISVP2,2013-06-11 22:03:00,
2013-06-11 17:08:00,91.1,74.3,29.88,SW,217,5.0,10.0,58,0.00,,,0.00,WUHU216DAVISVP2,2013-06-11 22:08:00,
2013-06-11 17:13:00,90.8,74.3,29.88,SSW,206,3.0,10.0,58,0.00,,,0.00,WUHU216DAVISVP2,2013-06-11 22:13:00,
2013-06-11 17:18:00,90.7,74.7,29.88,SSW,207,5.0,8.0,59,0.00,,,0.00,WUHU216DAVISVP2,2013-06-11 22:18:00,
2013-06-11 17:23:00,91.1,76.1,29.88,South,186,5.0,9.0,61,0.00,,,0.00,WUHU216DAVISVP2,2013-06-11 22:23:00,
2013-06-11 17:28:00,91.7,75.6,29.88,SSW,201,6.0,10.0,59,0.00,,,0.00,WUHU216DAVISVP2,2013-06-11 22:28:00,
2013-06-11 17:33:00,91.9,75.8,29.87,SSW,207,8.0,11.0,59,0.00,,,0.00,WUHU216DAVISVP2,2013-06-11 22:33:00,
2013-06-11 17:38:00,91.6,75.5,29.87,SW,217,4.0,11.0,59,0.00,,,0.00,WUHU216DAVISVP2,2013-06-11 22:38:00,
2013-06-11 17:43:00,90.8,74.8,29.87,WSW,238,4.0,10.0,59,0.00,,,0.00,WUHU216DAVISVP2,2013-06-11 22:43:00,
2013-06-11 17:48:00,90.3,75.8,29.87,SSW,203,8.0,10.0,62,0.00,,,0.00,WUHU216DAVISVP2,2013-06-11 22:48:00,
2013-06-11 17:53:00,90.0,74.7,29.87,SSW,212,7.0,11.0,61,0.00,,,0.00,WUHU216DAVISVP2,2013-06-11 22:53:00,
2013-06-11 17:58:00,89.5,75.5,29.87,WSW,245,5.0,11.0,63,0.00,,,0.00,WUHU216DAVISVP2,2013-06-11 22:58:00,
2013-06-11 18:03:00,89.4,75.9,29.87,SW,219,5.0,6.0,64,0.00,,,0.00,WUHU216DAVISVP2,2013-06-11 23:03:00,
2013-06-11 18:08:00,89.2,75.7,29.87,SSW,198,6.0,6.0,64,0.00,,,0.00,WUHU216DAVISVP2,2013-06-11 23:08:00,
2013-06-11 18:13:00,89.0,75.7,29.87,SSW,207,4.0,7.0,65,0.00,,,0.00,WUHU216DAVISVP2,2013-06-11 23:13:00,
2013-06-11 18:18:00,88.7,75.3,29.87,SW,223,6.0,7.0,64,0.00,,,0.00,WUHU216DAVISVP2,2013-06-11 23:18:00,
2013-06-11 18:23:00,88.5,75.5,29.87,SSW,206,2.0,7.0,65,0.00,,,0.00,WUHU216DAVISVP2,2013-06-11 23:23:00,
2013-06-11 18:28:00,88.3,75.5,29.87,SSW,207,4.0,6.0,66,0.00,,,0.00,WUHU216DAVISVP2,2013-06-11 23:28:00,
2013-06-11 18:33:00,88.1,76.0,29.87,SW,216,4.0,6.0,67,0.00,,,0.00,WUHU216DAVISVP2,2013-06-11 23:33:00,
2013-06-11 18:38:00,87.9,75.9,29.87,SW,218,3.0,6.0,67,0.00,,,0.00,WUHU216DAVISVP2,2013-06-11 23:38:00,
2013-06-11 18:43:00,87.7,75.7,29.86,SSW,209,2.0,5.0,67,0.00,,,0.00,WUHU216DAVISVP2,2013-06-11 23:43:00,
2013-06-11 18:48:00,87.8,75.8,29.87,SSW,213,1.0,4.0,67,0.00,,,0.00,WUHU216DAVISVP2,2013-06-11 23:48:00,
2013-06-11 18:53:00,87.9,76.3,29.87,SSW,207,2.0,3.0,68,0.00,,,0.00,WUHU216DAVISVP2,2013-06-11 23:53:00,
2013-06-11 18:58:00,88.1,76.5,29.87,SSW,207,2.0,4.0,68,0.00,,,0.00,WUHU216DAVISVP2,2013-06-11 23:58:00,
2013-06-11 19:02:00,88.1,76.0,29.87,SSW,199,3.0,4.0,67,0.00,,,0.00,WUHU216DAVISVP2,2013-06-12 00:02:00,
2013-06-11 19:07:00,88.2,75.9,29.87,SSW,207,3.0,4.0,67,0.00,,,0.00,WUHU216DAVISVP2,2013-06-12 00:07:00,
2013-06-11 19:12:00,88.1,76.5,29.86,SSW,202,3.0,5.0,68,0.00,,,0.00,WUHU216DAVISVP2,2013-06-12 00:12:00,
2013-06-11 19:17:00,87.9,76.3,29.86,SSW,209,4.0,5.0,68,0.00,,,0.00,WUHU216DAVISVP2,2013-06-12 00:17:00,
2013-06-11 19:22:00,87.6,76.9,29.86,South,191,3.0,5.0,70,0.00,,,0.00,WUHU216DAVISVP2,2013-06-12 00:22:00,
2013-06-11 19:27:00,87.4,76.4,29.86,SSW,203,2.0,5.0,70,0.00,,,0.00,WUHU216DAVISVP2,2013-06-12 00:27:00,
2013-06-11 19:32:00,87.2,76.2,29.86,SSW,210,1.0,4.0,70,0.00,,,0.00,WUHU216DAVISVP2,2013-06-12 00:32:00,
2013-06-11 19:37:00,86.9,76.6,29.86,South,191,1.0,4.0,71,0.00,,,0.00,WUHU216DAVISVP2,2013-06-12 00:37:00,
2013-06-11 19:42:00,86.7,76.8,29.86,SSW,211,1.0,3.0,72,0.00,,,0.00,WUHU216DAVISVP2,2013-06-12 00:42:00,
2013-06-11 19:47:00,86.5,76.6,29.86,South,176,1.0,3.0,72,0.00,,,0.00,WUHU216DAVISVP2,2013-06-12 00:47:00,
2013-06-11 19:52:00,86.3,76.4,29.86,SSW,202,2.0,4.0,72,0.00,,,0.00,WUHU216DAVISVP2,2013-06-12 00:52:00,
2013-06-11 19:57:00,86.1,76.7,29.86,South,185,0.0,4.0,73,0.00,,,0.00,WUHU216DAVISVP2,2013-06-12 00:57:00,
2013-06-11 20:02:00,85.8,76.4,29.86,SSW,206,1.0,3.0,73,0.00,,,0.00,WUHU216DAVISVP2,2013-06-12 01:02:00,
2013-06-11 20:07:00,85.6,76.2,29.86,SSW,207,1.0,3.0,73,0.00,,,0.00,WUHU216DAVISVP2,2013-06-12 01:07:00,
2013-06-11 20:12:00,85.4,76.4,29.87,SSW,200,1.0,3.0,74,0.00,,,0.00,WUHU216DAVISVP2,2013-06-12 01:12:00,
2013-06-11 20:17:00,85.2,76.2,29.87,South,188,0.0,2.0,74,0.00,,,0.00,WUHU216DAVISVP2,2013-06-12 01:17:00,
2013-06-11 20:22:00,85.0,76.4,29.87,SSW,211,0.0,2.0,75,0.00,,,0.00,WUHU216DAVISVP2,2013-06-12 01:22:00,
2013-06-11 20:27:00,84.8,76.2,29.87,SSW,203,0.0,1.0,75,0.00,,,0.00,WUHU216DAVISVP2,2013-06-12 01:27:00,
2013-06-11 20:32:00,84.6,76.0,29.87,SW,218,1.0,2.0,75,0.00,,,0.00,WUHU216DAVISVP2,2013-06-12 01:32:00,
2013-06-11 20:37:00,84.5,76.3,29.87,South,186,1.0,2.0,76,0.00,,,0.00,WUHU216DAVISVP2,2013-06-12 01:37:00,
2013-06-11 20:42:00,84.3,76.3,29.88,SSW,196,1.0,2.0,77,0.00,,,0.00,WUHU216DAVISVP2,2013-06-12 01:42:00,
2013-06-11 20:47:00,84.2,76.2,29.88,SSW,200,1.0,3.0,77,0.00,,,0.00,WUHU216DAVISVP2,2013-06-12 01:47:00,
2013-06-11 20:52:00,83.9,76.5,29.88,SSW,195,1.0,3.0,78,0.00,,,0.00,WUHU216DAVISVP2,2013-06-12 01:52:00,
2013-06-11 20:57:00,83.7,76.3,29.88,SSW,195,1.0,2.0,78,0.00,,,0.00,WUHU216DAVISVP2,2013-06-12 01:57:00,
2013-06-11 21:02:00,83.5,76.4,29.88,SSW,197,2.0,2.0,79,0.00,,,0.00,WUHU216DAVISVP2,2013-06-12 02:02:00,
2013-06-11 21:07:00,83.4,76.3,29.88,South,179,3.0,3.0,79,0.00,,,0.00,WUHU216DAVISVP2,2013-06-12 02:07:00,
2013-06-11 21:12:00,83.3,76.2,29.87,South,191,2.0,3.0,79,0.00,,,0.00,WUHU216DAVISVP2,2013-06-12 02:12:00,
2013-06-11 21:17:00,83.2,76.0,29.88,South,182,2.0,4.0,79,0.00,,,0.00,WUHU216DAVISVP2,2013-06-12 02:17:00,
2013-06-11 21:22:00,83.2,76.1,29.88,South,179,2.0,4.0,79,0.00,,,0.00,WUHU216DAVISVP2,2013-06-12 02:22:00,
2013-06-11 21:27:00,83.2,76.1,29.88,SSW,200,5.0,5.0,79,0.00,,,0.00,WUHU216DAVISVP2,2013-06-12 02:27:00,
2013-06-11 21:32:00,83.0,76.3,29.88,SSW,210,4.0,5.0,80,0.00,,,0.00,WUHU216DAVISVP2,2013-06-12 02:32:00,
2013-06-11 21:37:00,82.8,76.0,29.89,SSW,197,4.0,5.0,80,0.00,,,0.00,WUHU216DAVISVP2,2013-06-12 02:37:00,
2013-06-11 21:42:00,82.7,75.9,29.89,SSW,199,2.0,5.0,80,0.00,,,0.00,WUHU216DAVISVP2,2013-06-12 02:42:00,
2013-06-11 21:47:00,82.7,76.4,29.89,SSW,204,2.0,4.0,81,0.00,,,0.00,WUHU216DAVISVP2,2013-06-12 02:47:00,
2013-06-11 21:52:00,82.5,76.2,29.90,SSW,203,2.0,4.0,81,0.00,,,0.00,WUHU216DAVISVP2,2013-06-12 02:52:00,
2013-06-11 21:57:00,82.3,76.3,29.90,SSW,204,1.0,4.0,82,0.00,,,0.00,WUHU216DAVISVP2,2013-06-12 02:57:00,
2013-06-11 22:02:00,82.1,76.2,29.90,SSW,204,0.0,2.0,82,0.00,,,0.00,WUHU216DAVISVP2,2013-06-12 03:02:00,
2013-06-11 22:07:00,82.1,76.2,29.90,SSW,204,1.0,2.0,82,0.00,,,0.00,WUHU216DAVISVP2,2013-06-12 03:07:00,
2013-06-11 22:12:00,82.1,76.2,29.90,SSW,204,1.0,1.0,82,0.00,,,0.00,WUHU216DAVISVP2,2013-06-12 03:12:00,
2013-06-11 22:17:00,82.1,76.1,29.89,SSW,207,0.0,1.0,82,0.00,,,0.00,WUHU216DAVISVP2,2013-06-12 03:17:00,
2013-06-11 22:23:00,82.1,76.2,29.89,SSW,203,1.0,2.0,82,0.00,,,0.00,WUHU216DAVISVP2,2013-06-12 03:23:00,
2013-06-11 22:27:00,82.2,76.3,29.89,South,182,1.0,2.0,82,0.00,,,0.00,WUHU216DAVISVP2,2013-06-12 03:27:00,
2013-06-11 22:33:00,82.2,76.3,29.89,South,186,2.0,2.0,82,0.00,,,0.00,WUHU216DAVISVP2,2013-06-12 03:33:00,
2013-06-11 22:38:00,82.1,76.2,29.89,South,191,2.0,3.0,82,0.00,,,0.00,WUHU216DAVISVP2,2013-06-12 03:38:00,
2013-06-11 22:43:00,82.1,76.1,29.89,South,173,4.0,4.0,82,0.00,,,0.00,WUHU216DAVISVP2,2013-06-12 03:43:00,
2013-06-11 22:48:00,82.0,76.0,29.89,SSW,207,5.0,5.0,82,0.00,,,0.00,WUHU216DAVISVP2,2013-06-12 03:48:00,
2013-06-11 22:53:00,81.8,76.2,29.89,South,186,3.0,5.0,83,0.00,,,0.00,WUHU216DAVISVP2,2013-06-12 03:53:00,
2013-06-11 22:58:00,81.6,76.0,29.89,South,177,4.0,6.0,83,0.00,,,0.00,WUHU216DAVISVP2,2013-06-12 03:58:00,
2013-06-11 23:01:00,81.5,75.9,29.89,SSW,194,4.0,7.0,83,0.00,,,0.00,WUHU216DAVISVP2,2013-06-12 04:01:00,
2013-06-11 23:02:00,81.5,76.3,29.89,SSW,198,4.0,7.0,84,0.00,,,0.00,WUHU216DAVISVP2,2013-06-12 04:02:00,
2013-06-11 23:07:00,81.4,76.2,29.89,SSW,202,4.0,7.0,84,0.00,,,0.00,WUHU216DAVISVP2,2013-06-12 04:07:00,
2013-06-11 23:12:00,81.5,76.3,29.89,SSW,205,4.0,6.0,84,0.00,,,0.00,WUHU216DAVISVP2,2013-06-12 04:12:00,
2013-06-11 23:17:00,81.6,76.0,29.89,SSW,193,3.0,6.0,83,0.00,,,0.00,WUHU216DAVISVP2,2013-06-12 04:17:00,
2013-06-11 23:22:00,81.6,75.9,29.89,SSW,203,4.0,6.0,83,0.00,,,0.00,WUHU216DAVISVP2,2013-06-12 04:22:00,
2013-06-11 23:27:00,81.5,76.2,29.89,SSW,203,4.0,6.0,84,0.00,,,0.00,WUHU216DAVISVP2,2013-06-12 04:27:00,
2013-06-11 23:32:00,81.2,76.0,29.89,SSW,202,5.0,6.0,84,0.00,,,0.00,WUHU216DAVISVP2,2013-06-12 04:32:00,
2013-06-11 23:37:00,81.1,75.8,29.89,South,181,4.0,5.0,84,0.00,,,0.00,WUHU216DAVISVP2,2013-06-12 04:37:00,
2013-06-11 23:42:00,81.2,76.0,29.89,SSW,199,3.0,5.0,84,0.00,,,0.00,WUHU216DAVISVP2,2013-06-12 04:42:00,
2013-06-11 23:47:00,81.4,75.8,29.89,South,191,4.0,6.0,83,0.00,,,0.00,WUHU216DAVISVP2,2013-06-12 04:47:00,
2013-06-11 23:52:00,81.6,76.0,29.89,South,191,4.0,7.0,83,0.00,,,0.00,WUHU216DAVISVP2,2013-06-12 04:52:00,
2013-06-11 23:57:00,81.6,76.0,29.89,SSW,196,5.0,7.0,83,0.00,,,0.00,WUHU216DAVISVP2,2013-06-12 04:57:00,